Modjeska Canyon, California
Current Conditions -  °F | °C
As of 7:56 AM on Sunday 25 Jan 2015 (Local Time) from KAJO Reporting Station
Clear Clear  
Wind Chill: 65°   Ceiling: Unl
Heat Index: 65°   Visibility: 10mi
Dew Point: 23°   Wind: 8mph
Humidity: 20%   Direction: 140°SE
Pressure: 30.06"   Gusts: NA
Location:  33.7477°N, 117.629°W
Report Text: KAJO 251556Z AUTO 14007KT 10SM CLR 18/M05 A3006 RMK AO2 T01831050 SLP174 $
Loading
Personal Weather Stations






























Interactive Weather Map New forecast layout! Learn more

10-Day Weather Forecast

Advertisements
Track Severe Weather on mobile